Jolyn — PJWG — position and weather

sailwx.info

Track history (hours):
 
Tides and Currents Weather Stations Pressure Air Temp Water Temp Dewpoint Dewpoint Depression Visibility Wind Speed Wind Dir Waves Ship Positions

Jolyn

Last reported at 2015-Mar-03 04:33 UTC. Time now 2015-Mar-03 04:43 UTC.
Position N 60°29' E 026°57'.

Length 89 m; draft 5.5 m.

Type: Cargo ship. MMSI: 306813000.

Date/timePositionNaut miles runAvg speedWind from/ knotsBaromVisibWave heightAir tempDewpointWater temp
2015-Mar-03 04:33N 60°29' E 026°57'0 0.0
2015-Mar-03 03:33N 60°29' E 026°57'0 0.0
2015-Mar-03 02:33N 60°29' E 026°57'0 0.0
2015-Mar-03 01:33N 60°29' E 026°57'0 0.0
2015-Mar-03 00:33N 60°29' E 026°57'0 0.0
2015-Mar-02 23:33N 60°29' E 026°57'0 0.0
2015-Mar-02 22:33N 60°29' E 026°57'0 0.0
2015-Mar-02 21:33N 60°29' E 026°57'0 0.0
2015-Mar-02 20:33N 60°29' E 026°57'0 0.0
2015-Mar-02 19:33N 60°29' E 026°57'0 0.0
2015-Mar-02 18:33N 60°29' E 026°57'0 0.0
2015-Mar-02 17:33N 60°29' E 026°57'0 0.0
2015-Mar-02 16:33N 60°29' E 026°57'0 0.0
2015-Mar-02 15:33N 60°29' E 026°57'0 0.0
2015-Mar-02 14:33N 60°29' E 026°57'0 0.0
2015-Mar-02 13:33N 60°29' E 026°57'0 0.0
2015-Mar-02 12:33N 60°29' E 026°57'0 0.0
2015-Mar-02 11:33N 60°29' E 026°57'0 0.0
2015-Mar-02 10:33N 60°29' E 026°57'0 0.0
2015-Mar-02 09:33N 60°29' E 026°57'0 0.0
2015-Mar-02 08:33N 60°29' E 026°57'0 0.0
2015-Mar-02 07:33N 60°29' E 026°57'0 0.0
2015-Mar-02 06:33N 60°29' E 026°57'0 0.0
2015-Mar-02 05:33N 60°29' E 026°57'0 0.0
2015-Mar-02 04:33N 60°29' E 026°57'0 0.0
2015-Mar-02 03:33N 60°29' E 026°57'0 0.0
2015-Mar-02 02:33N 60°29' E 026°57'0 0.0
2015-Mar-02 01:33N 60°29' E 026°57'0 0.0
2015-Mar-02 00:33N 60°29' E 026°57'0 0.0
2015-Mar-01 23:33N 60°29' E 026°57'0 0.0
2015-Mar-01 22:33N 60°29' E 026°57'0 0.0
2015-Mar-01 21:33N 60°29' E 026°57'0 0.0
2015-Mar-01 20:33N 60°29' E 026°57'0 0.0
2015-Mar-01 19:33N 60°29' E 026°57'0 0.0
2015-Mar-01 18:33N 60°29' E 026°57'0 0.0
2015-Mar-01 17:33N 60°29' E 026°57'0 0.0
2015-Mar-01 16:33N 60°29' E 026°57'0 0.0
2015-Mar-01 15:33N 60°29' E 026°57'0 0.0
2015-Mar-01 14:33N 60°29' E 026°57'0 0.0
2015-Mar-01 13:33N 60°29' E 026°57'0 0.0
2015-Mar-01 12:33N 60°29' E 026°57'0 0.0
2015-Mar-01 11:33N 60°29' E 026°57'0 0.0
2015-Mar-01 10:33N 60°29' E 026°57'0 0.0
2015-Mar-01 09:33N 60°29' E 026°57'0 0.0
2015-Mar-01 08:33N 60°29' E 026°57'5 5.4
2015-Mar-01 07:33N 60°24' E 026°53'1110.8
2015-Mar-01 06:34N 60°19' E 026°35'1010.0
2015-Mar-01 05:33N 60°11' E 026°22'1010.3
2015-Mar-01 04:33N 60°02' E 026°12'49 9.9
2015-Feb-28 23:33N 59°45' E 024°39'2110.3
2015-Feb-28 21:33N 59°39' E 024°00'1110.5
2015-Feb-28 20:31N 59°36' E 023°40'34410.1
2015-Feb-27 10:22N 55°44' E 015°44'810.2
2015-Feb-27 09:33N 55°39' E 015°31'1010.3
2015-Feb-27 08:33N 55°35' E 015°15'1010.0
2015-Feb-27 07:33N 55°30' E 014°60'10 9.9
2015-Feb-27 06:34N 55°25' E 014°45'10 9.8
2015-Feb-27 05:34N 55°18' E 014°32'1010.2
2015-Feb-27 04:33N 55°10' E 014°21'1010.1
2015-Feb-27 03:33N 55°02' E 014°10'1010.1
2015-Feb-27 02:34N 54°59' E 013°54'1010.2
2015-Feb-27 01:34N 54°55' E 013°37'10 9.9
2015-Feb-27 00:34N 54°52' E 013°21'10 9.9
2015-Feb-26 23:34N 54°48' E 013°05'10 9.7
2015-Feb-26 22:33N 54°44' E 012°50'10 9.7
2015-Feb-26 21:34N 54°38' E 012°36'10 9.7
2015-Feb-26 20:33N 54°33' E 012°22'9 9.4
2015-Feb-26 19:34N 54°26' E 012°11'9 8.8
2015-Feb-26 18:34N 54°24' E 011°56'9 9.3
2015-Feb-26 17:33N 54°26' E 011°41'10 9.5
2015-Feb-26 16:34N 54°30' E 011°26'9 9.3
2015-Feb-26 15:34N 54°34' E 011°12'9 9.1
2015-Feb-26 14:31N 54°34' E 010°55'1010.2
2015-Feb-26 13:33N 54°33' E 010°38'1010.3
2015-Feb-26 12:33N 54°30' E 010°22'10 9.6
2015-Feb-26 11:34N 54°23' E 010°11'2 2.5
2015-Feb-26 10:34N 54°22' E 010°07'8 7.5
2015-Feb-26 09:34N 54°21' E 009°54'7 7.1
2015-Feb-26 08:33N 54°19' E 009°43'8 7.8
2015-Feb-26 07:33N 54°13' E 009°35'8 8.3
2015-Feb-26 06:33N 54°09' E 009°22'8 8.0
2015-Feb-26 05:33N 54°01' E 009°18'6 5.5
2015-Feb-26 04:34N 53°56' E 009°13'4 4.0
2015-Feb-26 03:34N 53°54' E 009°09'3 2.8
2015-Feb-26 02:34N 53°53' E 009°04'8 8.2
2015-Feb-26 01:33N 53°50' E 008°51'9 8.6
2015-Feb-26 00:34N 53°56' E 008°40'8 8.5
2015-Feb-25 23:33N 53°59' E 008°26'9 8.9
2015-Feb-25 22:33N 53°59' E 008°11'10 9.7
2015-Feb-25 21:34N 53°57' E 007°55'9 8.9
2015-Feb-25 20:33N 53°55' E 007°40'9 8.6
2015-Feb-25 19:33N 53°54' E 007°26'9 9.0
2015-Feb-25 18:32N 53°51' E 007°11'33 9.6
2015-Feb-25 15:08N 53°43' E 006°17'610.5
2015-Feb-25 14:33N 53°41' E 006°07'1010.7
2015-Feb-25 13:34N 53°38' E 005°51'1111.2
2015-Feb-25 12:33N 53°34' E 005°33'1111.3
2015-Feb-25 11:34N 53°31' E 005°15'1211.6
2015-Feb-25 10:34N 53°27' E 004°56'10 9.5
2015-Feb-25 09:33N 53°22' E 004°43'1712.3
2015-Feb-25 08:11N 53°07' E 004°29'711.2
2015-Feb-25 07:33N 53°01' E 004°24'1110.9
2015-Feb-25 06:34N 52°51' E 004°16'1010.1
2015-Feb-25 05:34N 52°44' E 004°04'9 9.4
2015-Feb-25 04:33N 52°37' E 003°54'43 8.2
2015-Feb-24 23:19N 51°58' E 003°24'8 8.9
2015-Feb-24 22:27N 51°51' E 003°21'8 9.0
2015-Feb-24 21:33N 51°43' E 003°18'1010.3
2015-Feb-24 20:33N 51°34' E 003°25'1110.6
2015-Feb-24 19:33N 51°26' E 003°37'1110.9
2015-Feb-24 18:33N 51°23' E 003°53'7 6.8
2015-Feb-24 17:33N 51°25' E 004°03'6 6.4
2015-Feb-24 16:33N 51°23' E 004°13'7 7.3
2015-Feb-24 15:34N 51°17' E 004°20'1 0.5
2015-Feb-24 14:34N 51°17' E 004°21'1 0.6
2015-Feb-24 13:33N 51°16' E 004°22'0 0.0
2015-Feb-24 12:30N 51°16' E 004°22'0 0.0
2015-Feb-24 11:33N 51°16' E 004°22'0 0.0
2015-Feb-24 10:33N 51°16' E 004°22'0 0.0
2015-Feb-24 09:33N 51°16' E 004°22'0 0.0
2015-Feb-24 08:30N 51°16' E 004°22'0 0.0
2015-Feb-24 07:33N 51°16' E 004°22'0 0.0
2015-Feb-24 06:33N 51°16' E 004°22'0 0.0
2015-Feb-24 05:33N 51°16' E 004°22'0 0.0
2015-Feb-24 04:33N 51°16' E 004°22'0 0.0
2015-Feb-24 03:30N 51°16' E 004°22'0 0.0
2015-Feb-24 02:33N 51°16' E 004°22'0 0.0
2015-Feb-24 01:33N 51°16' E 004°22'0 0.0
2015-Feb-24 00:33N 51°16' E 004°22'0 0.0
2015-Feb-23 23:30N 51°16' E 004°22'0 0.0
2015-Feb-23 22:33N 51°16' E 004°22'0 0.0
2015-Feb-23 21:33N 51°16' E 004°22'0 0.0
2015-Feb-23 20:33N 51°16' E 004°22'0 0.0
2015-Feb-23 19:33N 51°16' E 004°22'0 0.0
2015-Feb-23 18:30N 51°16' E 004°22'0 0.0
2015-Feb-23 17:33N 51°16' E 004°22'0 0.0
2015-Feb-23 16:33N 51°16' E 004°22'0 0.0
2015-Feb-23 15:33N 51°16' E 004°22'0 0.0
2015-Feb-23 14:33N 51°16' E 004°22'0 0.0
2015-Feb-23 13:33N 51°16' E 004°22'0 0.0
2015-Feb-23 12:33N 51°16' E 004°22'0 0.0
2015-Feb-23 11:33N 51°16' E 004°22'0 0.1
2015-Feb-23 10:33N 51°16' E 004°22'0 0.0
2015-Feb-23 09:30N 51°16' E 004°22'0 0.0
2015-Feb-23 08:33N 51°16' E 004°22'0 0.0
2015-Feb-23 07:33N 51°16' E 004°22'0 0.0
2015-Feb-23 06:33N 51°16' E 004°22'0 0.0
2015-Feb-23 05:33N 51°16' E 004°22'0 0.0
2015-Feb-23 04:33N 51°16' E 004°22'0 0.0
2015-Feb-23 03:33N 51°16' E 004°22'0 0.0
2015-Feb-23 02:33N 51°16' E 004°22'0 0.0
2015-Feb-23 01:33N 51°16' E 004°22'0 0.0
2015-Feb-23 00:33N 51°16' E 004°22'0 0.0
2015-Feb-22 23:33N 51°16' E 004°22'0 0.0
2015-Feb-22 22:33N 51°16' E 004°22'0 0.0
2015-Feb-22 21:33N 51°16' E 004°22'0 0.0
2015-Feb-22 20:33N 51°16' E 004°22'0 0.0
2015-Feb-22 19:33N 51°16' E 004°22'0 0.0
2015-Feb-22 18:33N 51°16' E 004°22'0 0.0
2015-Feb-22 17:33N 51°16' E 004°22'0 0.0
2015-Feb-22 16:33N 51°16' E 004°22'0 0.0
2015-Feb-22 15:33N 51°16' E 004°22'0 0.0
2015-Feb-22 14:30N 51°16' E 004°22'0 0.0
2015-Feb-22 13:33N 51°16' E 004°22'0 0.0
2015-Feb-22 12:33N 51°16' E 004°22'0 0.0
2015-Feb-22 11:33N 51°16' E 004°22'0 0.0
2015-Feb-22 10:33N 51°16' E 004°22'0 0.0
2015-Feb-22 09:30N 51°16' E 004°22'0 0.0
2015-Feb-22 08:30N 51°16' E 004°22'0 0.0
2015-Feb-22 07:33N 51°16' E 004°22'0 0.0
2015-Feb-22 06:30N 51°16' E 004°22'0 0.0
2015-Feb-22 05:33N 51°16' E 004°22'0 0.0
2015-Feb-22 04:33N 51°16' E 004°22'0 0.0
2015-Feb-22 03:33N 51°16' E 004°22'0 0.0
2015-Feb-22 02:33N 51°16' E 004°22'0 0.0
2015-Feb-22 01:33N 51°16' E 004°22'0 0.0
2015-Feb-22 00:33N 51°16' E 004°22'0 0.0
2015-Feb-21 23:33N 51°16' E 004°22'0 0.0
2015-Feb-21 22:33N 51°16' E 004°22'0 0.0
2015-Feb-21 21:30N 51°16' E 004°22'0 0.0
2015-Feb-21 20:33N 51°16' E 004°22'0 0.0
2015-Feb-21 19:33N 51°16' E 004°22'0 0.0
2015-Feb-21 18:33N 51°16' E 004°22'0 0.0
2015-Feb-21 17:33N 51°16' E 004°22'0 0.0
2015-Feb-21 16:33N 51°16' E 004°22'0 0.0
2015-Feb-21 15:33N 51°16' E 004°22'0 0.0
2015-Feb-21 14:33N 51°16' E 004°22'0 0.0
2015-Feb-21 13:33N 51°16' E 004°22'3 3.5
2015-Feb-21 12:33N 51°19' E 004°19'2 2.0
2015-Feb-21 11:34N 51°21' E 004°17'3 2.5
2015-Feb-21 10:33N 51°22' E 004°13'7 7.3
2015-Feb-21 09:33N 51°23' E 004°02'6 5.5
2015-Feb-21 08:33N 51°22' E 003°54'8 8.2
2015-Feb-21 07:33N 51°24' E 003°41'9 8.6
2015-Feb-21 06:33N 51°29' E 003°30'1010.3
2015-Feb-21 05:33N 51°38' E 003°21'  
Track history (hours):
 
Tides and Currents Weather Stations Pressure Air Temp Water Temp Dewpoint Dewpoint Depression Visibility Wind Speed Wind Dir Waves Ship Positions

Jolyn

Last reported at 2015-Mar-03 04:33 UTC. Time now 2015-Mar-03 04:43 UTC.
Position N 60°29' E 026°57'.

Length 89 m; draft 5.5 m.

Type: Cargo ship. MMSI: 306813000.

Date/timePositionNaut miles runAvg speedWind from/ knotsBaromVisibWave heightAir tempDewpointWater temp
2015-Mar-03 04:33N 60°29' E 026°57'0 0.0
2015-Mar-03 03:33N 60°29' E 026°57'0 0.0
2015-Mar-03 02:33N 60°29' E 026°57'0 0.0
2015-Mar-03 01:33N 60°29' E 026°57'0 0.0
2015-Mar-03 00:33N 60°29' E 026°57'0 0.0
2015-Mar-02 23:33N 60°29' E 026°57'0 0.0
2015-Mar-02 22:33N 60°29' E 026°57'0 0.0
2015-Mar-02 21:33N 60°29' E 026°57'0 0.0
2015-Mar-02 20:33N 60°29' E 026°57'0 0.0
2015-Mar-02 19:33N 60°29' E 026°57'0 0.0
2015-Mar-02 18:33N 60°29' E 026°57'0 0.0
2015-Mar-02 17:33N 60°29' E 026°57'0 0.0
2015-Mar-02 16:33N 60°29' E 026°57'0 0.0
2015-Mar-02 15:33N 60°29' E 026°57'0 0.0
2015-Mar-02 14:33N 60°29' E 026°57'0 0.0
2015-Mar-02 13:33N 60°29' E 026°57'0 0.0
2015-Mar-02 12:33N 60°29' E 026°57'0 0.0
2015-Mar-02 11:33N 60°29' E 026°57'0 0.0
2015-Mar-02 10:33N 60°29' E 026°57'0 0.0
2015-Mar-02 09:33N 60°29' E 026°57'0 0.0
2015-Mar-02 08:33N 60°29' E 026°57'0 0.0
2015-Mar-02 07:33N 60°29' E 026°57'0 0.0
2015-Mar-02 06:33N 60°29' E 026°57'0 0.0
2015-Mar-02 05:33N 60°29' E 026°57'0 0.0
2015-Mar-02 04:33N 60°29' E 026°57'0 0.0
2015-Mar-02 03:33N 60°29' E 026°57'0 0.0
2015-Mar-02 02:33N 60°29' E 026°57'0 0.0
2015-Mar-02 01:33N 60°29' E 026°57'0 0.0
2015-Mar-02 00:33N 60°29' E 026°57'0 0.0
2015-Mar-01 23:33N 60°29' E 026°57'0 0.0
2015-Mar-01 22:33N 60°29' E 026°57'0 0.0
2015-Mar-01 21:33N 60°29' E 026°57'0 0.0
2015-Mar-01 20:33N 60°29' E 026°57'0 0.0
2015-Mar-01 19:33N 60°29' E 026°57'0 0.0
2015-Mar-01 18:33N 60°29' E 026°57'0 0.0
2015-Mar-01 17:33N 60°29' E 026°57'0 0.0
2015-Mar-01 16:33N 60°29' E 026°57'0 0.0
2015-Mar-01 15:33N 60°29' E 026°57'0 0.0
2015-Mar-01 14:33N 60°29' E 026°57'0 0.0
2015-Mar-01 13:33N 60°29' E 026°57'0 0.0
2015-Mar-01 12:33N 60°29' E 026°57'0 0.0
2015-Mar-01 11:33N 60°29' E 026°57'0 0.0
2015-Mar-01 10:33N 60°29' E 026°57'0 0.0
2015-Mar-01 09:33N 60°29' E 026°57'0 0.0
2015-Mar-01 08:33N 60°29' E 026°57'5 5.4
2015-Mar-01 07:33N 60°24' E 026°53'1110.8
2015-Mar-01 06:34N 60°19' E 026°35'1010.0
2015-Mar-01 05:33N 60°11' E 026°22'1010.3
2015-Mar-01 04:33N 60°02' E 026°12'49 9.9
2015-Feb-28 23:33N 59°45' E 024°39'2110.3
2015-Feb-28 21:33N 59°39' E 024°00'1110.5
2015-Feb-28 20:31N 59°36' E 023°40'34410.1
2015-Feb-27 10:22N 55°44' E 015°44'810.2
2015-Feb-27 09:33N 55°39' E 015°31'1010.3
2015-Feb-27 08:33N 55°35' E 015°15'1010.0
2015-Feb-27 07:33N 55°30' E 014°60'10 9.9
2015-Feb-27 06:34N 55°25' E 014°45'10 9.8
2015-Feb-27 05:34N 55°18' E 014°32'1010.2
2015-Feb-27 04:33N 55°10' E 014°21'1010.1
2015-Feb-27 03:33N 55°02' E 014°10'1010.1
2015-Feb-27 02:34N 54°59' E 013°54'1010.2
2015-Feb-27 01:34N 54°55' E 013°37'10 9.9
2015-Feb-27 00:34N 54°52' E 013°21'10 9.9
2015-Feb-26 23:34N 54°48' E 013°05'10 9.7
2015-Feb-26 22:33N 54°44' E 012°50'10 9.7
2015-Feb-26 21:34N 54°38' E 012°36'10 9.7
2015-Feb-26 20:33N 54°33' E 012°22'9 9.4
2015-Feb-26 19:34N 54°26' E 012°11'9 8.8
2015-Feb-26 18:34N 54°24' E 011°56'9 9.3
2015-Feb-26 17:33N 54°26' E 011°41'10 9.5
2015-Feb-26 16:34N 54°30' E 011°26'9 9.3
2015-Feb-26 15:34N 54°34' E 011°12'9 9.1
2015-Feb-26 14:31N 54°34' E 010°55'1010.2
2015-Feb-26 13:33N 54°33' E 010°38'1010.3
2015-Feb-26 12:33N 54°30' E 010°22'10 9.6
2015-Feb-26 11:34N 54°23' E 010°11'2 2.5
2015-Feb-26 10:34N 54°22' E 010°07'8 7.5
2015-Feb-26 09:34N 54°21' E 009°54'7 7.1
2015-Feb-26 08:33N 54°19' E 009°43'8 7.8
2015-Feb-26 07:33N 54°13' E 009°35'8 8.3
2015-Feb-26 06:33N 54°09' E 009°22'8 8.0
2015-Feb-26 05:33N 54°01' E 009°18'6 5.5
2015-Feb-26 04:34N 53°56' E 009°13'4 4.0
2015-Feb-26 03:34N 53°54' E 009°09'3 2.8
2015-Feb-26 02:34N 53°53' E 009°04'8 8.2
2015-Feb-26 01:33N 53°50' E 008°51'9 8.6
2015-Feb-26 00:34N 53°56' E 008°40'8 8.5
2015-Feb-25 23:33N 53°59' E 008°26'9 8.9
2015-Feb-25 22:33N 53°59' E 008°11'10 9.7
2015-Feb-25 21:34N 53°57' E 007°55'9 8.9
2015-Feb-25 20:33N 53°55' E 007°40'9 8.6
2015-Feb-25 19:33N 53°54' E 007°26'9 9.0
2015-Feb-25 18:32N 53°51' E 007°11'33 9.6
2015-Feb-25 15:08N 53°43' E 006°17'610.5
2015-Feb-25 14:33N 53°41' E 006°07'1010.7
2015-Feb-25 13:34N 53°38' E 005°51'1111.2
2015-Feb-25 12:33N 53°34' E 005°33'1111.3
2015-Feb-25 11:34N 53°31' E 005°15'1211.6
2015-Feb-25 10:34N 53°27' E 004°56'10 9.5
2015-Feb-25 09:33N 53°22' E 004°43'1712.3
2015-Feb-25 08:11N 53°07' E 004°29'711.2
2015-Feb-25 07:33N 53°01' E 004°24'1110.9
2015-Feb-25 06:34N 52°51' E 004°16'1010.1
2015-Feb-25 05:34N 52°44' E 004°04'9 9.4
2015-Feb-25 04:33N 52°37' E 003°54'43 8.2
2015-Feb-24 23:19N 51°58' E 003°24'8 8.9
2015-Feb-24 22:27N 51°51' E 003°21'8 9.0
2015-Feb-24 21:33N 51°43' E 003°18'1010.3
2015-Feb-24 20:33N 51°34' E 003°25'1110.6
2015-Feb-24 19:33N 51°26' E 003°37'1110.9
2015-Feb-24 18:33N 51°23' E 003°53'7 6.8
2015-Feb-24 17:33N 51°25' E 004°03'6 6.4
2015-Feb-24 16:33N 51°23' E 004°13'7 7.3
2015-Feb-24 15:34N 51°17' E 004°20'1 0.5
2015-Feb-24 14:34N 51°17' E 004°21'1 0.6
2015-Feb-24 13:33N 51°16' E 004°22'0 0.0
2015-Feb-24 12:30N 51°16' E 004°22'0 0.0
2015-Feb-24 11:33N 51°16' E 004°22'0 0.0
2015-Feb-24 10:33N 51°16' E 004°22'0 0.0
2015-Feb-24 09:33N 51°16' E 004°22'0 0.0
2015-Feb-24 08:30N 51°16' E 004°22'0 0.0
2015-Feb-24 07:33N 51°16' E 004°22'0 0.0
2015-Feb-24 06:33N 51°16' E 004°22'0 0.0
2015-Feb-24 05:33N 51°16' E 004°22'0 0.0
2015-Feb-24 04:33N 51°16' E 004°22'0 0.0
2015-Feb-24 03:30N 51°16' E 004°22'0 0.0
2015-Feb-24 02:33N 51°16' E 004°22'0 0.0
2015-Feb-24 01:33N 51°16' E 004°22'0 0.0
2015-Feb-24 00:33N 51°16' E 004°22'0 0.0
2015-Feb-23 23:30N 51°16' E 004°22'0 0.0
2015-Feb-23 22:33N 51°16' E 004°22'0 0.0
2015-Feb-23 21:33N 51°16' E 004°22'0 0.0
2015-Feb-23 20:33N 51°16' E 004°22'0 0.0
2015-Feb-23 19:33N 51°16' E 004°22'0 0.0
2015-Feb-23 18:30N 51°16' E 004°22'0 0.0
2015-Feb-23 17:33N 51°16' E 004°22'0 0.0
2015-Feb-23 16:33N 51°16' E 004°22'0 0.0
2015-Feb-23 15:33N 51°16' E 004°22'0 0.0
2015-Feb-23 14:33N 51°16' E 004°22'0 0.0
2015-Feb-23 13:33N 51°16' E 004°22'0 0.0
2015-Feb-23 12:33N 51°16' E 004°22'0 0.0
2015-Feb-23 11:33N 51°16' E 004°22'0 0.1
2015-Feb-23 10:33N 51°16' E 004°22'0 0.0
2015-Feb-23 09:30N 51°16' E 004°22'0 0.0
2015-Feb-23 08:33N 51°16' E 004°22'0 0.0
2015-Feb-23 07:33N 51°16' E 004°22'0 0.0
2015-Feb-23 06:33N 51°16' E 004°22'0 0.0
2015-Feb-23 05:33N 51°16' E 004°22'0 0.0
2015-Feb-23 04:33N 51°16' E 004°22'0 0.0
2015-Feb-23 03:33N 51°16' E 004°22'0 0.0
2015-Feb-23 02:33N 51°16' E 004°22'0 0.0
2015-Feb-23 01:33N 51°16' E 004°22'0 0.0
2015-Feb-23 00:33N 51°16' E 004°22'0 0.0
2015-Feb-22 23:33N 51°16' E 004°22'0 0.0
2015-Feb-22 22:33N 51°16' E 004°22'0 0.0
2015-Feb-22 21:33N 51°16' E 004°22'0 0.0
2015-Feb-22 20:33N 51°16' E 004°22'0 0.0
2015-Feb-22 19:33N 51°16' E 004°22'0 0.0
2015-Feb-22 18:33N 51°16' E 004°22'0 0.0
2015-Feb-22 17:33N 51°16' E 004°22'0 0.0
2015-Feb-22 16:33N 51°16' E 004°22'0 0.0
2015-Feb-22 15:33N 51°16' E 004°22'0 0.0
2015-Feb-22 14:30N 51°16' E 004°22'0 0.0
2015-Feb-22 13:33N 51°16' E 004°22'0 0.0
2015-Feb-22 12:33N 51°16' E 004°22'0 0.0
2015-Feb-22 11:33N 51°16' E 004°22'0 0.0
2015-Feb-22 10:33N 51°16' E 004°22'0 0.0
2015-Feb-22 09:30N 51°16' E 004°22'0 0.0
2015-Feb-22 08:30N 51°16' E 004°22'0 0.0
2015-Feb-22 07:33N 51°16' E 004°22'0 0.0
2015-Feb-22 06:30N 51°16' E 004°22'0 0.0
2015-Feb-22 05:33N 51°16' E 004°22'0 0.0
2015-Feb-22 04:33N 51°16' E 004°22'0 0.0
2015-Feb-22 03:33N 51°16' E 004°22'0 0.0
2015-Feb-22 02:33N 51°16' E 004°22'0 0.0
2015-Feb-22 01:33N 51°16' E 004°22'0 0.0
2015-Feb-22 00:33N 51°16' E 004°22'0 0.0
2015-Feb-21 23:33N 51°16' E 004°22'0 0.0
2015-Feb-21 22:33N 51°16' E 004°22'0 0.0
2015-Feb-21 21:30N 51°16' E 004°22'0 0.0
2015-Feb-21 20:33N 51°16' E 004°22'0 0.0
2015-Feb-21 19:33N 51°16' E 004°22'0 0.0
2015-Feb-21 18:33N 51°16' E 004°22'0 0.0
2015-Feb-21 17:33N 51°16' E 004°22'0 0.0
2015-Feb-21 16:33N 51°16' E 004°22'0 0.0
2015-Feb-21 15:33N 51°16' E 004°22'0 0.0
2015-Feb-21 14:33N 51°16' E 004°22'0 0.0
2015-Feb-21 13:33N 51°16' E 004°22'3 3.5
2015-Feb-21 12:33N 51°19' E 004°19'2 2.0
2015-Feb-21 11:34N 51°21' E 004°17'3 2.5
2015-Feb-21 10:33N 51°22' E 004°13'7 7.3
2015-Feb-21 09:33N 51°23' E 004°02'6 5.5
2015-Feb-21 08:33N 51°22' E 003°54'8 8.2
2015-Feb-21 07:33N 51°24' E 003°41'9 8.6
2015-Feb-21 06:33N 51°29' E 003°30'1010.3
2015-Feb-21 05:33N 51°38' E 003°21'  

Dump ship's entire track history